Time;durP1;ratioP1;P1;durP2;ratioP2;P2;SDS_P1;SDS_P2;PMS_P1;PMS_P2;Temp;Humidity;BMP_temperature;BMP_pressure;BME280_temperature;BME280_humidity;BME280_pressure;Samples;Min_cycle;Max_cycle;Signal;HPM_P1;HPM_P2
2023/06/24 00:02:10;;;;;;;0.10;0.10;;;15.60;99.90;;;;;;5048545;28;20477;-79
2023/06/24 00:04:36;;;;;;;0.10;0.10;;;15.60;99.90;;;;;;5046737;28;20469;-79
2023/06/24 00:07:02;;;;;;;0.10;0.10;;;15.60;99.90;;;;;;5043596;28;20606;-79
2023/06/24 00:09:29;;;;;;;0.10;0.10;;;15.60;99.90;;;;;;5045828;28;20218;-79
2023/06/24 00:11:56;;;;;;;0.10;0.10;;;15.40;99.90;;;;;;5077554;28;20530;-79
2023/06/24 00:14:23;;;;;;;0.10;0.10;;;15.40;99.90;;;;;;5075810;28;20551;-79
2023/06/24 00:16:51;;;;;;;0.10;0.10;;;15.50;99.90;;;;;;5088389;28;20507;-79
2023/06/24 00:19:27;;;;;;;0.10;0.10;;;15.50;99.90;;;;;;5088555;28;20443;-77
2023/06/24 00:21:53;;;;;;;0.10;0.10;;;15.40;99.90;;;;;;5070801;28;20453;-77
2023/06/24 00:24:25;;;;;;;0.10;0.10;;;15.40;99.90;;;;;;5094566;28;20447;-77
2023/06/24 00:26:55;;;;;;;0.10;0.10;;;15.80;99.90;;;;;;5083765;28;20237;-79
2023/06/24 00:29:20;;;;;;;0.10;0.10;;;15.60;99.90;;;;;;5082384;28;20629;-80
2023/06/24 00:31:46;;;;;;;0.10;0.10;;;15.40;99.90;;;;;;5086381;28;20954;-79
2023/06/24 00:34:11;;;;;;;0.10;0.10;;;15.40;99.90;;;;;;5070514;28;20300;-79
2023/06/24 00:36:37;;;;;;;0.10;0.10;;;15.30;99.90;;;;;;5089634;28;20212;-80
2023/06/24 00:39:03;;;;;;;0.10;0.10;;;15.20;99.90;;;;;;5088943;28;20181;-79
2023/06/24 00:41:30;;;;;;;0.10;0.10;;;15.30;99.90;;;;;;5084481;28;20443;-77
2023/06/24 00:43:57;;;;;;;0.10;0.10;;;15.40;99.90;;;;;;5077895;28;20189;-77
2023/06/24 00:46:25;;;;;;;0.10;0.10;;;15.30;99.90;;;;;;5082255;28;20458;-77
2023/06/24 00:49:00;;;;;;;0.10;0.10;;;15.10;99.90;;;;;;5080497;28;20475;-77
2023/06/24 00:51:30;;;;;;;0.10;0.10;;;15.20;99.90;;;;;;5069477;28;20487;-76
2023/06/24 00:53:56;;;;;;;0.10;0.10;;;15.10;99.90;;;;;;5078323;28;21021;-77
2023/06/24 00:56:29;;;;;;;0.10;0.10;;;15.20;99.90;;;;;;5078527;28;20478;-77
2023/06/24 00:58:59;;;;;;;0.10;0.10;;;15.20;99.90;;;;;;5080737;28;20982;-77
2023/06/24 01:01:25;;;;;;;0.10;0.10;;;15.10;99.90;;;;;;5080561;28;20444;-76
2023/06/24 01:03:50;;;;;;;0.10;0.10;;;15.10;99.90;;;;;;5078773;28;20439;-78
2023/06/24 01:06:17;;;;;;;0.10;0.10;;;15.20;99.90;;;;;;5086893;28;20181;-79
2023/06/24 01:08:43;;;;;;;0.10;0.10;;;15.10;99.90;;;;;;5069904;28;20189;-79
2023/06/24 01:11:08;;;;;;;0.10;0.10;;;15.10;99.90;;;;;;5079229;28;20590;-79
2023/06/24 01:13:34;;;;;;;0.10;0.10;;;15.00;99.90;;;;;;5078406;28;20768;-79
2023/06/24 01:16:11;;;;;;;0.10;0.10;;;15.00;99.90;;;;;;5070541;28;20182;-77
2023/06/24 01:18:54;;;;;;;0.10;0.10;;;14.90;99.90;;;;;;5086616;28;20283;-76
2023/06/24 01:21:38;;;;;;;0.10;0.10;;;14.90;99.90;;;;;;5064261;28;20447;-77
2023/06/24 01:24:28;;;;;;;0.10;0.10;;;15.00;99.90;;;;;;5067479;28;20860;-77
2023/06/24 01:27:19;;;;;;;0.10;0.10;;;14.90;99.90;;;;;;5071664;28;20435;-77
2023/06/24 01:29:44;;;;;;;0.10;0.10;;;15.00;99.90;;;;;;5088316;28;20460;-77
2023/06/24 01:32:42;;;;;;;0.10;0.10;;;15.00;99.90;;;;;;5085295;28;20541;-77
2023/06/24 01:35:15;;;;;;;0.10;0.10;;;15.20;99.90;;;;;;5094016;28;20272;-77
2023/06/24 01:37:43;;;;;;;0.10;0.10;;;15.00;99.90;;;;;;5074410;28;20489;-77
2023/06/24 01:40:34;;;;;;;0.10;0.10;;;14.90;99.90;;;;;;5081772;28;20529;-77
2023/06/24 01:43:03;;;;;;;0.10;0.10;;;14.80;99.90;;;;;;5080195;28;20939;-77
2023/06/24 01:45:33;;;;;;;0.10;0.10;;;14.70;99.90;;;;;;5055948;28;20441;-76
2023/06/24 01:48:07;;;;;;;0.10;0.10;;;14.70;99.90;;;;;;5092188;28;20959;-77
2023/06/24 01:50:34;;;;;;;0.10;0.10;;;14.70;99.90;;;;;;5077466;28;20536;-77
2023/06/24 01:53:05;;;;;;;0.10;0.10;;;14.60;99.90;;;;;;5081453;28;20442;-77
2023/06/24 01:55:32;;;;;;;0.10;0.10;;;14.60;99.90;;;;;;5089074;28;20455;-77
2023/06/24 01:57:59;;;;;;;0.10;0.10;;;14.50;99.90;;;;;;5086990;28;20443;-76
2023/06/24 02:00:26;;;;;;;0.10;0.10;;;14.50;99.90;;;;;;5083710;28;21430;-77
2023/06/24 02:02:54;;;;;;;0.10;0.10;;;14.60;99.90;;;;;;5084921;28;20521;-76
2023/06/24 02:05:20;;;;;;;0.10;0.10;;;14.50;99.90;;;;;;5088863;28;20488;-77
2023/06/24 02:07:49;;;;;;;0.10;0.10;;;14.40;99.90;;;;;;5063957;28;20473;-77
2023/06/24 02:10:16;;;;;;;0.10;0.10;;;14.40;99.90;;;;;;5082042;28;20525;-76
2023/06/24 02:12:46;;;;;;;0.10;0.10;;;14.40;99.90;;;;;;5087998;28;20489;-77
2023/06/24 02:15:12;;;;;;;0.10;0.10;;;14.40;99.90;;;;;;5080820;28;20427;-77
2023/06/24 02:17:39;;;;;;;0.10;0.10;;;14.50;99.90;;;;;;5085648;28;20443;-77
2023/06/24 02:20:08;;;;;;;0.10;0.10;;;14.50;99.90;;;;;;5091106;28;20434;-77
2023/06/24 02:22:35;;;;;;;0.10;0.10;;;14.50;99.90;;;;;;5093233;28;20439;-77
2023/06/24 02:25:02;;;;;;;0.10;0.10;;;14.40;99.90;;;;;;5079994;28;20438;-77
2023/06/24 02:27:28;;;;;;;0.10;0.10;;;14.30;99.90;;;;;;5070817;28;20443;-77
2023/06/24 02:29:54;;;;;;;0.10;0.10;;;14.30;99.90;;;;;;5074453;28;20477;-77
2023/06/24 02:32:20;;;;;;;0.10;0.10;;;14.20;99.90;;;;;;5075091;28;20511;-77
2023/06/24 02:34:46;;;;;;;0.10;0.10;;;14.20;99.90;;;;;;5090751;28;20506;-76
2023/06/24 02:37:11;;;;;;;0.10;0.10;;;14.30;99.90;;;;;;5087825;28;20306;-77
2023/06/24 02:39:43;;;;;;;0.10;0.10;;;14.20;99.90;;;;;;5058796;28;20834;-77
2023/06/24 02:42:10;;;;;;;0.10;0.10;;;14.20;99.90;;;;;;5068282;28;20196;-77
2023/06/24 02:44:35;;;;;;;0.10;0.10;;;14.30;99.90;;;;;;5081054;28;20440;-77
2023/06/24 02:47:02;;;;;;;0.10;0.10;;;14.20;99.90;;;;;;5078145;28;20930;-77
2023/06/24 02:49:27;;;;;;;0.10;0.10;;;14.30;99.90;;;;;;5091391;28;20188;-77
2023/06/24 02:51:53;;;;;;;0.10;0.10;;;14.30;99.90;;;;;;5072986;28;20435;-77
2023/06/24 02:54:19;;;;;;;0.10;0.10;;;14.30;99.90;;;;;;5090327;28;20185;-76
2023/06/24 02:56:44;;;;;;;0.10;0.10;;;14.40;99.90;;;;;;5072391;28;20496;-77
2023/06/24 02:59:10;;;;;;;0.10;0.10;;;14.30;99.90;;;;;;5079753;28;20243;-77
2023/06/24 03:01:38;;;;;;;0.10;0.10;;;14.30;99.90;;;;;;5082006;28;20169;-77
2023/06/24 03:04:04;;;;;;;0.10;0.10;;;14.30;99.90;;;;;;5064091;28;20835;-77
2023/06/24 03:06:31;;;;;;;0.10;0.10;;;14.40;99.90;;;;;;5096794;28;20442;-77
2023/06/24 03:08:57;;;;;;;0.10;0.10;;;14.50;99.90;;;;;;5088106;28;20427;-77
2023/06/24 03:11:23;;;;;;;0.10;0.10;;;14.40;99.90;;;;;;5089414;28;20498;-77
2023/06/24 03:13:49;;;;;;;0.10;0.10;;;14.40;99.90;;;;;;5065569;28;20431;-77
2023/06/24 03:16:15;;;;;;;0.10;0.10;;;14.30;99.90;;;;;;5078935;28;20200;-77
2023/06/24 03:18:43;;;;;;;0.10;0.10;;;14.30;99.90;;;;;;5063928;28;20642;-77
2023/06/24 03:21:10;;;;;;;0.10;0.10;;;14.30;99.90;;;;;;5086844;28;20930;-77
2023/06/24 03:23:35;;;;;;;0.10;0.10;;;14.40;99.90;;;;;;5083751;28;20493;-77
2023/06/24 03:26:02;;;;;;;0.10;0.10;;;14.40;99.90;;;;;;5104877;28;20799;-77
2023/06/24 03:28:30;;;;;;;0.10;0.10;;;14.30;99.90;;;;;;5075696;28;20189;-78
2023/06/24 03:30:55;;;;;;;0.10;0.10;;;14.30;99.90;;;;;;5082077;28;20567;-77
2023/06/24 03:33:21;;;;;;;0.10;0.10;;;14.40;99.90;;;;;;5064259;28;20514;-78
2023/06/24 03:35:46;;;;;;;0.10;0.10;;;14.40;99.90;;;;;;5060323;28;20193;-77
2023/06/24 03:38:12;;;;;;;0.10;0.10;;;14.50;99.90;;;;;;5080976;28;20185;-78
2023/06/24 03:40:37;;;;;;;0.10;0.10;;;14.50;99.90;;;;;;5071845;28;20215;-77
2023/06/24 03:43:03;;;;;;;0.10;0.10;;;14.50;99.90;;;;;;5081029;28;20194;-77
2023/06/24 03:45:29;;;;;;;0.10;0.10;;;14.30;99.90;;;;;;5077287;28;20189;-78
2023/06/24 03:47:54;;;;;;;0.10;0.10;;;14.40;99.90;;;;;;5073161;28;20847;-77
2023/06/24 03:50:20;;;;;;;0.10;0.10;;;14.50;99.90;;;;;;5064873;28;20240;-77
2023/06/24 03:52:45;;;;;;;0.10;0.10;;;14.50;99.90;;;;;;5088548;28;20185;-77
2023/06/24 03:55:11;;;;;;;0.10;0.10;;;14.50;99.90;;;;;;5056845;28;20189;-76
2023/06/24 03:57:37;;;;;;;0.10;0.10;;;14.60;99.90;;;;;;5090618;28;20185;-77
2023/06/24 04:00:16;;;;;;;0.10;0.10;;;14.50;99.90;;;;;;5086485;28;20181;-77
2023/06/24 04:02:45;;;;;;;0.10;0.10;;;14.60;99.90;;;;;;5087470;28;21005;-77
2023/06/24 04:05:10;;;;;;;0.10;0.10;;;14.60;99.90;;;;;;5052489;28;20444;-77
2023/06/24 04:07:36;;;;;;;0.10;0.10;;;14.60;99.90;;;;;;5071560;28;20452;-77
2023/06/24 04:10:10;;;;;;;0.10;0.10;;;14.70;99.90;;;;;;5065256;28;20236;-77
2023/06/24 04:12:36;;;;;;;0.10;0.10;;;14.70;99.90;;;;;;5087485;28;20234;-76
2023/06/24 04:15:03;;;;;;;0.10;0.10;;;14.70;99.90;;;;;;5084297;28;21065;-77
2023/06/24 04:17:29;;;;;;;0.10;0.10;;;14.60;99.90;;;;;;5089594;28;20272;-77
2023/06/24 04:19:55;;;;;;;0.10;0.10;;;14.60;99.90;;;;;;5061032;28;20448;-77
2023/06/24 04:22:20;;;;;;;0.10;0.10;;;14.60;99.90;;;;;;5083263;28;20466;-77
2023/06/24 04:24:46;;;;;;;0.10;0.10;;;14.60;99.90;;;;;;5068262;28;20667;-77
2023/06/24 04:27:11;;;;;;;0.10;0.10;;;14.60;99.90;;;;;;5079775;28;20185;-77
2023/06/24 04:29:37;;;;;;;0.10;0.10;;;14.80;99.90;;;;;;5100698;28;20687;-77
2023/06/24 04:32:02;;;;;;;0.10;0.10;;;14.80;99.90;;;;;;5056106;28;20873;-77
2023/06/24 04:34:28;;;;;;;0.10;0.10;;;14.90;99.90;;;;;;5078470;28;20177;-77
2023/06/24 04:36:53;;;;;;;0.10;0.10;;;14.90;99.90;;;;;;5064428;28;20173;-77
2023/06/24 04:39:19;;;;;;;0.10;0.10;;;14.90;99.90;;;;;;5088569;28;20526;-77
2023/06/24 04:41:46;;;;;;;0.10;0.10;;;15.10;99.90;;;;;;5074503;28;20188;-77
2023/06/24 04:44:11;;;;;;;0.10;0.10;;;15.10;99.90;;;;;;5084848;28;20937;-77
2023/06/24 04:46:37;;;;;;;0.10;0.10;;;15.10;99.90;;;;;;5081877;28;20500;-77
2023/06/24 04:49:02;;;;;;;0.10;0.10;;;15.10;99.90;;;;;;5089244;28;20225;-77
2023/06/24 04:51:28;;;;;;;0.10;0.10;;;15.20;99.90;;;;;;5068054;28;20221;-77
2023/06/24 04:53:55;;;;;;;0.10;0.10;;;15.20;99.90;;;;;;5093835;28;20176;-76
2023/06/24 04:56:20;;;;;;;0.10;0.10;;;15.20;99.90;;;;;;5109212;28;20675;-77
2023/06/24 04:58:46;;;;;;;0.10;0.10;;;15.30;99.90;;;;;;5082142;28;20522;-76
2023/06/24 05:01:11;;;;;;;0.10;0.10;;;15.30;99.90;;;;;;5082054;28;20211;-77
2023/06/24 05:03:37;;;;;;;0.10;0.10;;;15.40;99.90;;;;;;5089625;28;20638;-77
2023/06/24 05:06:02;;;;;;;0.10;0.10;;;15.40;99.90;;;;;;5081565;28;20197;-76
2023/06/24 05:08:28;;;;;;;0.10;0.10;;;15.60;99.90;;;;;;5094954;28;20189;-77
2023/06/24 05:10:53;;;;;;;0.10;0.10;;;15.70;99.90;;;;;;5069804;28;20240;-77
2023/06/24 05:13:19;;;;;;;0.10;0.10;;;15.80;99.90;;;;;;5094217;28;20196;-80
2023/06/24 05:15:45;;;;;;;0.10;0.10;;;15.80;99.90;;;;;;5088173;28;20196;-80
2023/06/24 05:18:10;;;;;;;0.10;0.10;;;15.90;99.90;;;;;;5090542;28;20189;-80
2023/06/24 05:20:36;;;;;;;0.10;0.10;;;16.10;99.90;;;;;;5083575;28;20953;-80
2023/06/24 05:23:01;;;;;;;0.10;0.10;;;16.30;99.90;;;;;;5085716;28;20288;-80
2023/06/24 05:25:27;;;;;;;0.10;0.10;;;16.50;99.90;;;;;;5073592;28;20197;-80
2023/06/24 05:27:52;;;;;;;0.10;0.10;;;16.50;99.90;;;;;;5080789;28;20299;-80
2023/06/24 05:30:18;;;;;;;0.10;0.10;;;16.60;99.90;;;;;;5077302;28;20221;-80
2023/06/24 05:32:43;;;;;;;0.10;0.10;;;16.60;99.90;;;;;;5081237;28;20181;-79
2023/06/24 05:35:09;;;;;;;0.10;0.10;;;16.50;99.90;;;;;;5094078;28;20203;-80
2023/06/24 05:37:34;;;;;;;0.10;0.10;;;16.50;99.90;;;;;;5081970;28;20189;-80
2023/06/24 05:40:01;;;;;;;0.10;0.10;;;16.50;99.90;;;;;;5081568;28;20213;-79
2023/06/24 05:42:27;;;;;;;0.10;0.10;;;16.40;99.90;;;;;;5083081;28;20188;-79
2023/06/24 05:44:53;;;;;;;0.10;0.10;;;16.40;99.90;;;;;;5072446;28;20447;-79
2023/06/24 05:47:18;;;;;;;0.10;0.10;;;16.50;99.90;;;;;;5086892;28;20526;-79
2023/06/24 05:49:44;;;;;;;0.10;0.10;;;16.40;99.90;;;;;;5081596;28;20220;-79
2023/06/24 05:52:10;;;;;;;0.10;0.10;;;16.50;99.90;;;;;;5079022;28;20226;-78
2023/06/24 05:54:35;;;;;;;0.10;0.10;;;16.50;99.90;;;;;;5078117;28;20185;-79
2023/06/24 05:57:01;;;;;;;0.10;0.10;;;16.60;99.90;;;;;;5090952;28;20501;-79
2023/06/24 05:59:27;;;;;;;0.10;0.10;;;16.60;99.90;;;;;;5089049;28;20194;-78
2023/06/24 06:01:52;;;;;;;0.10;0.10;;;16.60;99.90;;;;;;5088605;28;20180;-79
2023/06/24 06:04:18;;;;;;;0.10;0.10;;;16.60;99.90;;;;;;5089355;28;20185;-79
2023/06/24 06:06:43;;;;;;;0.10;0.10;;;16.40;99.90;;;;;;5085217;28;20182;-79
2023/06/24 06:09:09;;;;;;;0.10;0.10;;;16.50;99.90;;;;;;5066599;28;20197;-79
2023/06/24 06:11:34;;;;;;;0.10;0.10;;;16.60;99.90;;;;;;5085801;28;20243;-79
2023/06/24 06:14:00;;;;;;;0.10;0.10;;;16.60;99.90;;;;;;5106653;28;20197;-79
2023/06/24 06:16:26;;;;;;;0.10;0.10;;;16.70;99.90;;;;;;5070622;28;20196;-79
2023/06/24 06:18:51;;;;;;;0.10;0.10;;;16.80;99.90;;;;;;5065186;28;20185;-79
2023/06/24 06:21:17;;;;;;;0.10;0.10;;;16.80;99.90;;;;;;5083554;28;20815;-79
2023/06/24 06:23:42;;;;;;;0.10;0.10;;;16.80;99.90;;;;;;5083785;28;20234;-79
2023/06/24 06:26:08;;;;;;;0.10;0.10;;;17.00;99.90;;;;;;5082611;28;20185;-78
2023/06/24 06:28:34;;;;;;;0.10;0.10;;;17.20;99.90;;;;;;5084007;28;20743;-78
2023/06/24 06:30:59;;;;;;;0.10;0.10;;;17.40;99.90;;;;;;5072754;28;20821;-78
2023/06/24 06:33:25;;;;;;;0.10;0.10;;;17.50;99.90;;;;;;5086198;28;20189;-77
2023/06/24 06:35:50;;;;;;;0.10;0.10;;;17.70;99.90;;;;;;5084810;28;20197;-78
2023/06/24 06:38:16;;;;;;;0.10;0.10;;;17.70;99.90;;;;;;5068966;28;20192;-80
2023/06/24 06:40:41;;;;;;;0.10;0.10;;;17.70;99.90;;;;;;5073035;28;20219;-79
2023/06/24 06:43:07;;;;;;;0.10;0.10;;;17.70;99.90;;;;;;5082764;28;20186;-79
2023/06/24 06:45:32;;;;;;;0.10;0.10;;;17.70;99.90;;;;;;5090012;28;20249;-79
2023/06/24 06:47:58;;;;;;;0.10;0.10;;;17.80;99.90;;;;;;5082199;28;20231;-80
2023/06/24 06:50:23;;;;;;;0.10;0.10;;;17.90;99.90;;;;;;5077333;28;20221;-80
2023/06/24 08:01:44;;;;;;;0.00;0.00;;;19.80;99.90;;;;;;5132033;27;21124;-79
2023/06/24 08:04:10;;;;;;;0.00;0.00;;;20.10;99.90;;;;;;5123121;27;20463;-79
2023/06/24 08:06:36;;;;;;;0.00;0.00;;;20.20;99.90;;;;;;5129425;27;20183;-78
2023/06/24 08:09:01;;;;;;;0.00;0.00;;;20.30;99.90;;;;;;5099709;27;20632;-78
2023/06/24 08:11:27;;;;;;;0.00;0.00;;;20.20;99.90;;;;;;5103253;28;20237;-79
2023/06/24 08:13:52;;;;;;;0.00;0.00;;;20.00;99.90;;;;;;5106656;28;20179;-78
2023/06/24 08:16:20;;;;;;;0.00;0.00;;;20.10;99.90;;;;;;5107258;28;20651;-78
2023/06/24 08:18:46;;;;;;;0.00;0.00;;;20.10;99.90;;;;;;5124558;27;20692;-78
2023/06/24 08:21:11;;;;;;;0.00;0.00;;;20.10;99.90;;;;;;5119943;27;20478;-79
2023/06/24 08:23:37;;;;;;;0.00;0.00;;;20.20;99.90;;;;;;5110401;28;20490;-79
2023/06/24 08:26:03;;;;;;;0.00;0.00;;;20.10;99.90;;;;;;5106955;27;20206;-80
2023/06/24 08:28:28;;;;;;;0.00;0.00;;;20.20;99.90;;;;;;5125496;27;20180;-80
2023/06/24 08:30:54;;;;;;;0.00;0.00;;;20.30;99.90;;;;;;5111449;27;20895;-79
2023/06/24 08:33:19;;;;;;;0.00;0.00;;;20.60;99.90;;;;;;5126953;28;20559;-79
2023/06/24 08:35:45;;;;;;;0.00;0.00;;;20.80;99.90;;;;;;5128221;27;20192;-80
2023/06/24 08:38:10;;;;;;;0.00;0.00;;;20.70;99.90;;;;;;5128516;27;20187;-80
2023/06/24 08:40:39;;;;;;;0.00;0.00;;;20.60;99.90;;;;;;5127858;27;20219;-79
2023/06/24 08:43:05;;;;;;;0.00;0.00;;;20.60;99.90;;;;;;5107365;27;20180;-80
2023/06/24 08:45:31;;;;;;;0.00;0.00;;;20.90;99.90;;;;;;5105950;27;20436;-80
2023/06/24 08:47:58;;;;;;;0.00;0.00;;;21.20;99.90;;;;;;5130832;27;20437;-78
2023/06/24 08:50:29;;;;;;;0.00;0.00;;;21.30;99.90;;;;;;5124507;28;20238;-79
2023/06/24 08:52:56;;;;;;;0.00;0.00;;;21.40;99.90;;;;;;5104841;28;20437;-78
2023/06/24 08:55:23;;;;;;;0.00;0.00;;;21.50;99.90;;;;;;5123518;28;20944;-79
2023/06/24 08:57:49;;;;;;;0.00;0.00;;;21.70;99.90;;;;;;5104135;28;20437;-79
2023/06/24 09:00:15;;;;;;;0.00;0.00;;;21.60;99.90;;;;;;5122934;28;20481;-77
2023/06/24 09:02:42;;;;;;;0.00;0.00;;;21.90;99.90;;;;;;5125807;27;20482;-78
2023/06/24 09:05:08;;;;;;;0.10;0.10;;;22.30;99.90;;;;;;5124776;27;20528;-77
2023/06/24 09:07:34;;;;;;;0.10;0.00;;;22.40;99.90;;;;;;5107138;28;20494;-76
2023/06/24 09:10:03;;;;;;;0.00;0.00;;;22.30;99.90;;;;;;5106416;28;20438;-76
2023/06/24 09:12:31;;;;;;;0.00;0.00;;;22.40;99.90;;;;;;5115633;27;20244;-75
2023/06/24 09:14:57;;;;;;;0.00;0.00;;;22.70;99.90;;;;;;5113962;27;20452;-75
2023/06/24 09:17:23;;;;;;;0.00;0.00;;;22.70;99.90;;;;;;5106909;27;20929;-76
2023/06/24 09:19:49;;;;;;;0.10;0.10;;;22.70;99.90;;;;;;5093275;28;20674;-74
2023/06/24 09:22:18;;;;;;;0.00;0.00;;;22.50;99.90;;;;;;5099369;27;20198;-75
2023/06/24 09:24:46;;;;;;;0.00;0.00;;;22.90;99.90;;;;;;5087075;27;20446;-77
2023/06/24 09:27:17;;;;;;;0.00;0.00;;;22.90;99.90;;;;;;5092559;28;20928;-75
2023/06/24 09:29:43;;;;;;;0.00;0.00;;;22.80;99.90;;;;;;5095384;28;20515;-74
2023/06/24 09:32:09;;;;;;;0.00;0.00;;;23.20;99.90;;;;;;5111420;28;20941;-75
2023/06/24 09:34:35;;;;;;;0.00;0.00;;;23.40;99.90;;;;;;5109083;28;20503;-75
2023/06/24 09:37:00;;;;;;;0.00;0.00;;;23.50;99.90;;;;;;5110468;28;20207;-75
2023/06/24 09:39:29;;;;;;;0.00;0.00;;;23.80;99.90;;;;;;5107999;28;20192;-76
2023/06/24 09:41:59;;;;;;;0.00;0.00;;;23.90;99.90;;;;;;5108388;28;20275;-75
2023/06/24 09:44:26;;;;;;;0.10;0.00;;;24.00;99.90;;;;;;5109565;28;20479;-76
2023/06/24 09:46:52;;;;;;;0.10;0.00;;;24.00;99.90;;;;;;5110048;28;20451;-76
2023/06/24 09:49:18;;;;;;;0.10;0.00;;;24.30;99.90;;;;;;5095436;28;22447;-76
2023/06/24 09:51:46;;;;;;;0.10;0.00;;;24.20;99.90;;;;;;5108325;28;20442;-75
2023/06/24 09:54:13;;;;;;;0.10;0.00;;;24.30;99.90;;;;;;5101380;28;20439;-76
2023/06/24 09:56:44;;;;;;;0.10;0.00;;;24.50;99.90;;;;;;5105852;28;20524;-75
2023/06/24 09:59:12;;;;;;;0.10;0.00;;;24.80;99.90;;;;;;5111934;27;20449;-76
2023/06/24 10:01:44;;;;;;;0.10;0.00;;;24.50;99.90;;;;;;5090966;28;20567;-76
2023/06/24 10:04:16;;;;;;;0.10;0.00;;;23.90;99.90;;;;;;5109282;28;20471;-75
2023/06/24 10:06:42;;;;;;;0.10;0.00;;;23.60;99.90;;;;;;5115147;27;20452;-75
2023/06/24 10:09:08;;;;;;;0.10;0.00;;;23.50;99.90;;;;;;5109527;28;20445;-75
2023/06/24 10:11:34;;;;;;;0.10;0.00;;;23.20;99.90;;;;;;5111824;28;20267;-75
2023/06/24 10:14:00;;;;;;;0.00;0.00;;;23.20;99.90;;;;;;5106878;28;20528;-76
2023/06/24 10:16:25;;;;;;;0.10;0.00;;;23.20;99.90;;;;;;5088153;28;20242;-75
2023/06/24 10:18:51;;;;;;;0.10;0.00;;;23.60;99.90;;;;;;5108238;28;20184;-76
2023/06/24 10:21:17;;;;;;;0.07;0.00;;;24.30;99.90;;;;;;5108098;27;20224;-75
2023/06/24 10:23:54;;;;;;;0.10;0.00;;;24.30;99.90;;;;;;5097273;28;20188;-75
2023/06/24 10:26:24;;;;;;;0.10;0.00;;;24.40;99.90;;;;;;5112408;28;20184;-75
2023/06/24 10:29:06;;;;;;;0.10;0.00;;;24.70;99.90;;;;;;5100667;28;20862;-76
2023/06/24 10:31:43;;;;;;;0.10;0.00;;;24.60;99.90;;;;;;5104076;28;20434;-76
2023/06/24 10:34:26;;;;;;;0.10;0.00;;;24.50;99.90;;;;;;5124684;27;20437;-75
2023/06/24 10:36:58;;;;;;;0.10;0.00;;;24.30;99.90;;;;;;5099874;28;20935;-75
2023/06/24 10:39:48;;;;;;;0.10;0.00;;;23.90;99.90;;;;;;5116241;27;20434;-75
2023/06/24 10:42:23;;;;;;;0.10;0.00;;;24.10;99.90;;;;;;5096209;27;20498;-75
2023/06/24 10:44:50;;;;;;;0.10;0.00;;;24.10;99.90;;;;;;5114141;27;20433;-75
2023/06/24 10:47:16;;;;;;;0.10;0.00;;;24.40;99.90;;;;;;5117187;27;20506;-76
2023/06/24 10:49:42;;;;;;;0.10;0.00;;;24.70;99.90;;;;;;5092629;27;20451;-76
2023/06/24 10:52:12;;;;;;;0.10;0.00;;;24.90;99.90;;;;;;5090744;28;21024;-74
2023/06/24 10:54:38;;;;;;;0.10;0.00;;;24.90;99.90;;;;;;5109530;28;20196;-74
2023/06/24 10:57:08;;;;;;;0.10;0.00;;;25.30;99.90;;;;;;5116131;27;20433;-75
2023/06/24 10:59:41;;;;;;;0.10;0.00;;;25.50;99.90;;;;;;5114050;27;20474;-73
2023/06/24 11:02:09;;;;;;;0.10;0.00;;;25.80;99.90;;;;;;5116382;27;20441;-72
2023/06/24 11:04:49;;;;;;;0.10;0.00;;;26.20;99.90;;;;;;5110711;28;20902;-72
2023/06/24 11:07:16;;;;;;;0.10;0.00;;;26.30;99.90;;;;;;5083588;28;20453;-72
2023/06/24 11:09:42;;;;;;;0.10;0.00;;;26.40;99.90;;;;;;5106171;28;20442;-73
2023/06/24 11:12:09;;;;;;;0.10;0.00;;;26.40;99.90;;;;;;5112680;27;20447;-73
2023/06/24 11:14:36;;;;;;;0.10;0.00;;;26.80;99.90;;;;;;5125797;27;20599;-73
2023/06/24 11:17:03;;;;;;;0.10;0.00;;;26.70;99.90;;;;;;5108602;28;20442;-73
2023/06/24 11:19:30;;;;;;;0.00;0.00;;;25.90;99.90;;;;;;5091670;28;20465;-73
2023/06/24 11:22:01;;;;;;;0.10;0.00;;;25.60;99.90;;;;;;5106567;28;20446;-74
2023/06/24 11:24:30;;;;;;;0.00;0.00;;;26.40;99.90;;;;;;5108163;27;20445;-73
2023/06/24 11:26:56;;;;;;;0.10;0.00;;;26.80;99.90;;;;;;5099830;27;20453;-73
2023/06/24 11:29:22;;;;;;;0.10;0.00;;;27.80;99.90;;;;;;5108950;28;20434;-73
2023/06/24 11:31:49;;;;;;;0.10;0.00;;;28.30;99.90;;;;;;5110682;27;20484;-72
2023/06/24 11:34:15;;;;;;;0.10;0.00;;;28.40;99.90;;;;;;5112132;27;20930;-73
2023/06/24 11:36:41;;;;;;;0.10;0.00;;;28.70;99.90;;;;;;5109577;28;20445;-73
2023/06/24 11:39:06;;;;;;;0.10;0.00;;;28.70;99.90;;;;;;5111250;28;20186;-73
2023/06/24 11:41:32;;;;;;;0.10;0.00;;;29.10;99.90;;;;;;5107769;28;20268;-73
2023/06/24 11:43:58;;;;;;;0.10;0.00;;;29.10;99.90;;;;;;5107934;28;20188;-74
2023/06/24 11:46:28;;;;;;;0.10;0.00;;;28.70;99.90;;;;;;5085947;28;20896;-73
2023/06/24 11:49:07;;;;;;;0.10;0.00;;;28.00;99.90;;;;;;5105874;28;20491;-73
2023/06/24 11:51:33;;;;;;;0.10;0.00;;;27.00;99.90;;;;;;5108189;28;20449;-72
2023/06/24 11:54:00;;;;;;;0.10;0.00;;;27.00;99.90;;;;;;5108054;28;20466;-72
2023/06/24 11:56:39;;;;;;;0.10;0.00;;;26.60;99.90;;;;;;5108630;28;20438;-73
2023/06/24 11:59:25;;;;;;;0.10;0.00;;;26.80;99.90;;;;;;5090013;28;20469;-72
2023/06/24 12:01:59;;;;;;;0.10;0.00;;;26.50;99.90;;;;;;5104077;28;20455;-73
2023/06/24 12:04:31;;;;;;;0.10;0.00;;;26.10;99.90;;;;;;5109351;28;20437;-72
2023/06/24 12:06:58;;;;;;;0.10;0.00;;;25.70;99.90;;;;;;5091111;28;20952;-72
2023/06/24 12:09:24;;;;;;;0.10;0.00;;;25.90;99.90;;;;;;5103943;28;20442;-72
2023/06/24 12:11:51;;;;;;;0.10;0.00;;;26.70;99.90;;;;;;5108574;28;21026;-73
2023/06/24 12:14:16;;;;;;;0.10;0.00;;;27.80;99.90;;;;;;5089908;28;20430;-73
2023/06/24 12:16:42;;;;;;;0.10;0.00;;;28.10;99.90;;;;;;5100302;28;20442;-72
2023/06/24 12:19:07;;;;;;;0.10;0.00;;;27.70;99.90;;;;;;5107935;28;20263;-72
2023/06/24 12:21:34;;;;;;;0.10;0.00;;;26.70;99.90;;;;;;5104747;28;20216;-72
2023/06/24 12:24:00;;;;;;;0.10;0.00;;;26.90;99.90;;;;;;5108822;28;20223;-73
2023/06/24 12:26:25;;;;;;;0.10;0.00;;;26.60;99.90;;;;;;5103456;28;20506;-72
2023/06/24 12:28:55;;;;;;;0.10;0.00;;;26.60;99.90;;;;;;5109690;28;20177;-72
2023/06/24 12:31:21;;;;;;;0.10;0.00;;;26.80;99.90;;;;;;5089242;28;20212;-72
2023/06/24 12:33:46;;;;;;;0.10;0.00;;;26.10;99.90;;;;;;5104270;28;20984;-72
2023/06/24 12:36:12;;;;;;;0.10;0.00;;;26.30;99.90;;;;;;5090375;28;20188;-72
2023/06/24 12:38:37;;;;;;;0.10;0.00;;;26.70;99.90;;;;;;5098801;28;20231;-72
2023/06/24 12:41:04;;;;;;;0.10;0.00;;;26.80;99.90;;;;;;5101501;28;20721;-73
2023/06/24 12:43:29;;;;;;;0.10;0.00;;;26.70;99.90;;;;;;5089232;28;20184;-73
2023/06/24 12:45:55;;;;;;;0.10;0.00;;;26.60;99.90;;;;;;5108130;28;20471;-72
2023/06/24 12:48:21;;;;;;;0.10;0.00;;;26.20;99.90;;;;;;5108404;28;20188;-72
2023/06/24 12:50:47;;;;;;;0.10;0.00;;;26.30;99.90;;;;;;5087167;28;20257;-73
2023/06/24 12:53:14;;;;;;;0.10;0.00;;;27.50;99.90;;;;;;5090678;28;20640;-73
2023/06/24 12:55:40;;;;;;;0.10;0.00;;;28.30;99.90;;;;;;5113403;28;20431;-74
2023/06/24 12:58:05;;;;;;;0.10;0.00;;;28.40;99.90;;;;;;5106213;28;20441;-73
2023/06/24 13:00:31;;;;;;;0.10;0.00;;;28.40;99.90;;;;;;5107168;28;20228;-73
2023/06/24 13:02:56;;;;;;;0.10;0.00;;;28.20;99.90;;;;;;5106816;28;20195;-73
2023/06/24 13:05:22;;;;;;;0.10;0.00;;;27.50;99.90;;;;;;5090812;28;20184;-73
2023/06/24 13:07:47;;;;;;;0.10;0.00;;;27.40;99.90;;;;;;5110412;28;20189;-73
2023/06/24 13:10:13;;;;;;;0.10;0.00;;;27.30;99.90;;;;;;5112093;28;20628;-72
2023/06/24 13:12:38;;;;;;;0.10;0.00;;;26.80;99.90;;;;;;5113821;28;20177;-75
2023/06/24 13:15:05;;;;;;;0.10;0.00;;;26.60;99.90;;;;;;5110061;28;20188;-75
2023/06/24 13:17:31;;;;;;;0.10;0.00;;;26.30;99.90;;;;;;5111258;28;20180;-76
2023/06/24 13:19:57;;;;;;;0.10;0.00;;;26.10;99.90;;;;;;5104227;28;21010;-77
2023/06/24 13:22:23;;;;;;;0.10;0.00;;;25.90;99.90;;;;;;5098796;28;20697;-75
2023/06/24 13:24:48;;;;;;;0.10;0.00;;;26.20;99.90;;;;;;5098159;28;20426;-76
2023/06/24 13:27:14;;;;;;;0.10;0.00;;;26.10;99.90;;;;;;5092511;28;20273;-76
2023/06/24 13:29:39;;;;;;;0.10;0.00;;;26.00;99.90;;;;;;5095479;28;20275;-76
2023/06/24 13:32:05;;;;;;;0.10;0.00;;;25.70;99.90;;;;;;5108336;28;20582;-76
2023/06/24 13:34:31;;;;;;;0.10;0.00;;;25.70;99.90;;;;;;5092372;28;20191;-76
2023/06/24 13:36:56;;;;;;;0.10;0.00;;;25.70;99.90;;;;;;5113027;28;20418;-74
2023/06/24 13:39:23;;;;;;;0.10;0.00;;;25.70;99.90;;;;;;5093305;28;20183;-76
2023/06/24 13:41:49;;;;;;;0.10;0.00;;;25.40;99.90;;;;;;5091802;28;20224;-76
2023/06/24 13:44:15;;;;;;;0.10;0.00;;;25.10;99.90;;;;;;5113208;28;20410;-76
2023/06/24 13:46:41;;;;;;;0.10;0.00;;;25.20;99.90;;;;;;5093432;28;20963;-76
2023/06/24 13:49:06;;;;;;;0.10;0.00;;;25.30;99.90;;;;;;5108579;28;20184;-77
2023/06/24 13:51:32;;;;;;;0.10;0.00;;;25.60;99.90;;;;;;5093466;28;20720;-77
2023/06/24 13:53:57;;;;;;;0.10;0.00;;;26.10;99.90;;;;;;5112565;28;20188;-77
2023/06/24 13:56:24;;;;;;;0.10;0.00;;;26.30;99.90;;;;;;5110442;28;20180;-76
2023/06/24 13:58:50;;;;;;;0.10;0.00;;;26.30;99.90;;;;;;5092268;28;20241;-77